createdAt,value
2022-11-05T00:00:37.608Z,100407.28
2022-11-05T00:03:23.946Z,100387.94
2022-11-05T00:06:12.667Z,100392.09
2022-11-05T00:08:59.748Z,100374.66
2022-11-05T00:11:45.575Z,100379.47
2022-11-05T00:14:31.603Z,100385.25
2022-11-05T00:16:58.893Z,100374.31
2022-11-05T00:19:25.911Z,100371.56
2022-11-05T00:22:11.671Z,100385.06
2022-11-05T00:24:57.375Z,100394.56
2022-11-05T00:27:24.653Z,100390.78
2022-11-05T00:29:52.225Z,100377.41
2022-11-05T00:32:19.442Z,100377.88
2022-11-05T00:34:46.476Z,100369.34
2022-11-05T00:37:13.647Z,100351.28
2022-11-05T00:39:43.959Z,100328.22
2022-11-05T00:42:32.729Z,100316.00
2022-11-05T00:45:02.630Z,100303.66
2022-11-05T00:47:49.930Z,100285.72
2022-11-05T00:50:17.615Z,100300.69
2022-11-05T00:52:56.896Z,100312.56
2022-11-05T00:55:29.669Z,100307.56
2022-11-05T00:57:57.895Z,100299.31
2022-11-05T01:00:27.093Z,100291.78
2022-11-05T01:02:57.146Z,100284.25
2022-11-05T01:05:24.467Z,100278.41
2022-11-05T01:07:53.287Z,100285.50
2022-11-05T01:10:21.454Z,100289.28
2022-11-05T01:12:48.554Z,100288.59
2022-11-05T01:15:16.248Z,100284.50
2022-11-05T01:17:43.280Z,100288.16
2022-11-05T01:20:11.279Z,100294.22
2022-11-05T01:22:38.368Z,100295.22
2022-11-05T01:25:07.736Z,100289.97
2022-11-05T01:27:36.863Z,100267.00
2022-11-05T01:30:06.223Z,100263.34
2022-11-05T01:32:35.236Z,100254.75
2022-11-05T01:35:03.836Z,100255.78
2022-11-05T01:37:30.965Z,100268.13
2022-11-05T01:39:58.504Z,100271.66
2022-11-05T01:42:27.275Z,100279.19
2022-11-05T01:45:02.712Z,100296.78
2022-11-05T01:47:58.026Z,100303.88
2022-11-05T01:50:51.679Z,100303.44
2022-11-05T01:53:39.522Z,100312.00
2022-11-05T01:56:11.815Z,100312.00
2022-11-05T01:58:49.885Z,100310.38
2022-11-05T02:01:18.310Z,100315.66
2022-11-05T02:03:47.170Z,100315.66
2022-11-05T02:06:16.854Z,100301.94
2022-11-05T02:09:04.047Z,100292.47
2022-11-05T02:11:31.382Z,100302.31
2022-11-05T02:13:59.874Z,100300.78
2022-11-05T02:16:46.837Z,100290.28
2022-11-05T02:19:30.738Z,100279.09
2022-11-05T02:22:12.969Z,100289.03
2022-11-05T02:24:48.764Z,100291.97
2022-11-05T02:27:54.104Z,100286.69
2022-11-05T02:30:39.306Z,100284.63
2022-11-05T02:33:25.053Z,100284.16
2022-11-05T02:36:04.567Z,100299.03
2022-11-05T02:38:36.520Z,100278.25
2022-11-05T02:41:22.711Z,100272.06
2022-11-05T02:44:17.768Z,100267.16
2022-11-05T02:47:07.125Z,100263.25
2022-11-05T02:50:03.402Z,100270.97
2022-11-05T02:52:59.299Z,100260.38
2022-11-05T02:55:36.479Z,100244.31
2022-11-05T02:58:07.027Z,100243.25
2022-11-05T03:00:58.076Z,100223.97
2022-11-05T03:03:35.096Z,100212.09
2022-11-05T03:06:07.971Z,100197.59
2022-11-05T03:08:44.104Z,100172.03
2022-11-05T03:11:20.272Z,100152.72
2022-11-05T03:14:11.562Z,100108.06
2022-11-05T03:16:38.704Z,100091.53
2022-11-05T03:19:43.187Z,100111.50
2022-11-05T03:22:29.309Z,100139.38
2022-11-05T03:25:02.783Z,100193.81
2022-11-05T03:27:34.773Z,100212.31
2022-11-05T03:30:05.619Z,100218.72
2022-11-05T03:32:36.624Z,100231.28
2022-11-05T03:35:14.783Z,100228.44
2022-11-05T03:37:45.056Z,100235.16
2022-11-05T03:40:14.915Z,100243.16
2022-11-05T03:42:47.038Z,100244.50
2022-11-05T03:45:27.946Z,100245.84
2022-11-05T03:47:59.095Z,100236.25
2022-11-05T03:50:44.126Z,100236.91
2022-11-05T03:53:18.963Z,100252.56
2022-11-05T03:56:13.065Z,100257.25
2022-11-05T03:58:47.952Z,100282.22
2022-11-05T04:01:15.808Z,100264.88
2022-11-05T04:03:42.884Z,100257.44
2022-11-05T04:06:29.386Z,100241.00
2022-11-05T04:09:14.899Z,100250.38
2022-11-05T04:12:00.486Z,100231.22
2022-11-05T04:14:27.633Z,100206.09
2022-11-05T04:17:28.382Z,100211.94
2022-11-05T04:20:14.976Z,100230.75
2022-11-05T04:23:00.442Z,100241.69
2022-11-05T04:25:27.603Z,100240.56
2022-11-05T04:28:00.169Z,100226.88
2022-11-05T04:30:27.342Z,100218.66
2022-11-05T04:33:00.302Z,100226.88
2022-11-05T04:35:29.992Z,100204.63
2022-11-05T04:37:57.190Z,100210.78
2022-11-05T04:40:25.026Z,100207.25
2022-11-05T04:42:54.429Z,100219.78
2022-11-05T04:45:23.488Z,100213.63
2022-11-05T04:47:50.637Z,100219.22
2022-11-05T04:50:18.066Z,100224.38
2022-11-05T04:52:45.283Z,100229.50
2022-11-05T04:55:12.488Z,100227.13
2022-11-05T04:57:39.565Z,100219.09
2022-11-05T05:00:08.716Z,100214.97
2022-11-05T05:02:36.377Z,100218.44
2022-11-05T05:05:04.814Z,100220.81
2022-11-05T05:07:33.225Z,100224.69
2022-11-05T05:10:01.625Z,100226.75
2022-11-05T05:12:29.179Z,100224.13
2022-11-05T05:14:56.237Z,100223.34
2022-11-05T05:17:24.460Z,100222.19
2022-11-05T05:20:10.347Z,100215.94
2022-11-05T05:22:39.914Z,100223.47
2022-11-05T05:25:07.542Z,100225.53
2022-11-05T05:27:34.626Z,100231.91
2022-11-05T05:30:03.715Z,100227.69
2022-11-05T05:32:30.852Z,100234.88
2022-11-05T05:35:00.135Z,100225.50
2022-11-05T05:37:27.321Z,100236.28
2022-11-05T05:39:54.477Z,100229.66
2022-11-05T05:42:23.103Z,100233.19
2022-11-05T05:44:50.178Z,100239.94
2022-11-05T05:47:17.410Z,100239.94
2022-11-05T05:49:44.481Z,100239.16
2022-11-05T05:52:11.803Z,100241.41
2022-11-05T05:54:42.652Z,100240.31
2022-11-05T05:57:10.637Z,100243.38
2022-11-05T05:59:37.724Z,100244.00
2022-11-05T06:02:05.869Z,100243.22
2022-11-05T06:04:33.046Z,100247.44
2022-11-05T06:07:00.211Z,100241.50
2022-11-05T06:09:27.284Z,100234.88
2022-11-05T06:11:54.522Z,100222.34
2022-11-05T06:14:21.717Z,100218.44
2022-11-05T06:16:48.805Z,100212.63
2022-11-05T06:19:16.078Z,100217.13
2022-11-05T06:21:43.210Z,100214.13
2022-11-05T06:24:10.569Z,100215.88
2022-11-05T06:26:42.964Z,100222.94
2022-11-05T06:29:10.827Z,100228.53
2022-11-05T06:31:37.988Z,100241.09
2022-11-05T06:34:05.122Z,100241.91
2022-11-05T06:36:32.478Z,100250.25
2022-11-05T06:38:59.759Z,100244.06
2022-11-05T06:41:27.108Z,100238.34
2022-11-05T06:43:54.238Z,100249.09
2022-11-05T06:46:21.923Z,100225.00
2022-11-05T06:48:48.973Z,100220.97
2022-11-05T06:51:16.329Z,100224.06
2022-11-05T06:53:43.383Z,100225.06
2022-11-05T06:56:10.620Z,100215.69
2022-11-05T06:58:37.810Z,100207.00
2022-11-05T07:01:10.656Z,100211.81
2022-11-05T07:03:39.980Z,100212.59
2022-11-05T07:06:08.059Z,100222.41
2022-11-05T07:08:37.199Z,100228.81
2022-11-05T07:11:04.654Z,100232.13
2022-11-05T07:13:32.047Z,100226.13
2022-11-05T07:15:59.433Z,100230.25
2022-11-05T07:18:28.950Z,100240.72
2022-11-05T07:20:56.163Z,100233.88
2022-11-05T07:23:23.257Z,100244.38
2022-11-05T07:25:50.832Z,100240.16
2022-11-05T07:28:18.375Z,100239.47
2022-11-05T07:30:45.703Z,100255.31
2022-11-05T07:33:13.403Z,100256.91
2022-11-05T07:35:40.939Z,100247.78
2022-11-05T07:38:08.994Z,100256.13
2022-11-05T07:40:36.232Z,100250.09
2022-11-05T07:43:04.077Z,100258.78
2022-11-05T07:45:31.952Z,100264.13
2022-11-05T07:48:04.097Z,100272.78
2022-11-05T07:50:36.827Z,100271.75
2022-11-05T07:53:06.888Z,100270.41
2022-11-05T07:55:34.630Z,100277.16
2022-11-05T07:58:02.133Z,100269.47
2022-11-05T08:00:30.244Z,100261.31
2022-11-05T08:03:09.268Z,100262.91
2022-11-05T08:05:40.120Z,100274.28
2022-11-05T08:08:09.404Z,100263.28
2022-11-05T08:10:38.025Z,100254.88
2022-11-05T08:13:06.638Z,100244.28
2022-11-05T08:15:34.421Z,100221.75
2022-11-05T08:18:07.165Z,100220.41
2022-11-05T08:20:35.177Z,100218.09
2022-11-05T08:23:02.385Z,100223.84
2022-11-05T08:25:29.826Z,100233.13
2022-11-05T08:28:08.987Z,100241.13
2022-11-05T08:30:36.774Z,100239.06
2022-11-05T08:33:10.076Z,100253.31
2022-11-05T08:35:38.372Z,100263.31
2022-11-05T08:38:07.958Z,100248.94
2022-11-05T08:40:36.925Z,100256.88
2022-11-05T08:43:07.122Z,100264.72
2022-11-05T08:45:38.209Z,100262.97
2022-11-05T08:48:17.251Z,100257.84
2022-11-05T08:50:47.892Z,100250.84
2022-11-05T08:53:16.149Z,100241.19
2022-11-05T08:55:44.407Z,100238.06
2022-11-05T08:58:15.541Z,100238.72
2022-11-05T09:00:44.374Z,100228.72
2022-11-05T09:03:12.768Z,100225.91
2022-11-05T09:05:41.665Z,100217.34
2022-11-05T09:08:12.115Z,100207.28
2022-11-05T09:10:42.784Z,100206.44
2022-11-05T09:13:17.893Z,100195.88
2022-11-05T09:15:45.982Z,100197.91
2022-11-05T09:18:14.253Z,100201.72
2022-11-05T09:20:41.820Z,100199.03
2022-11-05T09:23:11.464Z,100192.31
2022-11-05T09:25:40.211Z,100193.53
2022-11-05T09:28:11.377Z,100185.88
2022-11-05T09:30:47.973Z,100192.50
2022-11-05T09:33:15.820Z,100192.91
2022-11-05T09:35:43.287Z,100193.47
2022-11-05T09:38:10.461Z,100194.13
2022-11-05T09:41:08.983Z,100182.53
2022-11-05T09:43:58.238Z,100179.94
2022-11-05T09:46:28.600Z,100173.63
2022-11-05T09:49:05.372Z,100166.53
2022-11-05T09:51:33.380Z,100173.56
2022-11-05T09:54:03.072Z,100173.78
2022-11-05T09:56:33.270Z,100185.41
2022-11-05T09:59:18.663Z,100177.09
2022-11-05T10:01:47.387Z,100171.22
2022-11-05T10:04:28.147Z,100156.69
2022-11-05T10:07:01.293Z,100166.16
2022-11-05T10:09:31.580Z,100159.25
2022-11-05T10:12:05.807Z,100151.88
2022-11-05T10:14:39.372Z,100144.56
2022-11-05T10:17:18.488Z,100134.91
2022-11-05T10:19:51.250Z,100132.22
2022-11-05T10:22:19.886Z,100131.03
2022-11-05T10:24:51.237Z,100128.56
2022-11-05T10:27:32.301Z,100121.81
2022-11-05T10:30:00.439Z,100108.69
2022-11-05T10:32:37.711Z,100112.34
2022-11-05T10:35:07.227Z,100107.47
2022-11-05T10:37:40.536Z,100111.63
2022-11-05T10:40:39.995Z,100115.38
2022-11-05T10:43:10.503Z,100110.09
2022-11-05T10:45:40.937Z,100095.31
2022-11-05T10:48:39.417Z,100074.03
2022-11-05T10:51:11.072Z,100073.47
2022-11-05T10:53:39.976Z,100059.91
2022-11-05T10:56:37.834Z,100067.25
2022-11-05T10:59:18.962Z,100064.41
2022-11-05T11:01:46.924Z,100060.00
2022-11-05T11:04:20.751Z,100074.31
2022-11-05T11:06:52.793Z,100068.59
2022-11-05T11:09:24.469Z,100071.91
2022-11-05T11:11:59.757Z,100075.31
2022-11-05T11:14:29.907Z,100082.03
2022-11-05T11:17:18.201Z,100093.34
2022-11-05T11:19:45.376Z,100105.19
2022-11-05T11:22:16.996Z,100100.84
2022-11-05T11:24:47.988Z,100114.31
2022-11-05T11:27:20.458Z,100101.16
2022-11-05T11:29:56.983Z,100101.50
2022-11-05T11:32:28.787Z,100098.97
2022-11-05T11:34:58.472Z,100103.53
2022-11-05T11:37:29.996Z,100099.16
2022-11-05T11:40:19.490Z,100104.19
2022-11-05T11:42:51.042Z,100124.31
2022-11-05T11:45:24.430Z,100110.78
2022-11-05T11:47:51.886Z,100106.69
2022-11-05T11:50:39.007Z,100097.19
2022-11-05T11:53:21.150Z,100085.44
2022-11-05T11:56:16.794Z,100091.88
2022-11-05T11:58:43.931Z,100094.00
2022-11-05T12:01:27.812Z,100125.16
2022-11-05T12:04:00.320Z,100129.03
2022-11-05T12:06:43.746Z,100127.06
2022-11-05T12:09:25.840Z,100126.41
2022-11-05T12:12:07.771Z,100140.69
2022-11-05T12:14:55.043Z,100135.03
2022-11-05T12:17:43.217Z,100134.16
2022-11-05T12:20:16.144Z,100109.47
2022-11-05T12:23:01.374Z,100103.47
2022-11-05T12:25:28.606Z,100094.28
2022-11-05T12:28:14.119Z,100095.00
2022-11-05T12:30:53.363Z,100097.41
2022-11-05T12:33:20.509Z,100083.94
2022-11-05T12:35:58.325Z,100079.22
2022-11-05T12:39:01.833Z,100069.81
2022-11-05T12:41:43.907Z,100059.91
2022-11-05T12:44:26.332Z,100050.66
2022-11-05T12:47:29.713Z,100056.34
2022-11-05T12:50:11.454Z,100053.78
2022-11-05T12:52:50.745Z,100061.25
2022-11-05T12:55:24.297Z,100065.16
2022-11-05T12:57:59.243Z,100069.50
2022-11-05T13:00:30.184Z,100078.72
2022-11-05T13:03:23.265Z,100065.56
2022-11-05T13:06:10.383Z,100068.88
2022-11-05T13:08:45.125Z,100072.56
2022-11-05T13:11:30.752Z,100077.81
2022-11-05T13:14:38.994Z,100085.84
2022-11-05T13:17:22.931Z,100079.66
2022-11-05T13:20:17.390Z,100089.22
2022-11-05T13:22:49.635Z,100086.34
2022-11-05T13:25:22.366Z,100085.75
2022-11-05T13:28:22.304Z,100081.63
2022-11-05T13:30:55.224Z,100080.91
2022-11-05T13:33:31.384Z,100070.38
2022-11-05T13:36:28.158Z,100066.56
2022-11-05T13:39:14.131Z,100069.25
2022-11-05T13:41:55.087Z,100059.84
2022-11-05T13:44:43.059Z,100049.41
2022-11-05T13:47:16.900Z,100043.75
2022-11-05T13:50:09.143Z,100049.75
2022-11-05T13:53:01.168Z,100047.16
2022-11-05T13:55:47.068Z,100042.25
2022-11-05T13:58:14.217Z,100053.81
2022-11-05T14:00:58.464Z,100045.44
2022-11-05T14:03:28.325Z,100048.84
2022-11-05T14:06:04.898Z,100054.56
2022-11-05T14:08:45.242Z,100041.03
2022-11-05T14:11:18.571Z,100040.94
2022-11-05T14:13:47.204Z,100032.94
2022-11-05T14:16:20.988Z,100029.69
2022-11-05T14:19:15.093Z,100028.53
2022-11-05T14:22:27.236Z,100021.72
2022-11-05T14:24:54.341Z,100019.84
2022-11-05T14:27:21.572Z,100017.53
2022-11-05T14:29:50.221Z,100008.34
2022-11-05T14:32:17.319Z,100006.69
2022-11-05T14:34:50.002Z,100001.06
2022-11-05T14:37:22.632Z,100001.22
2022-11-05T14:39:50.499Z,100008.44
2022-11-05T14:42:28.321Z,100008.97
2022-11-05T14:45:08.677Z,100017.59
2022-11-05T14:47:43.629Z,100024.09
2022-11-05T14:50:20.218Z,100023.44
2022-11-05T14:52:57.071Z,100021.41
2022-11-05T14:55:35.184Z,100021.09
2022-11-05T14:58:06.991Z,100022.19
2022-11-05T15:00:40.725Z,100017.88
2022-11-05T15:03:34.646Z,100010.63
2022-11-05T15:06:20.437Z,100010.81
2022-11-05T15:08:50.606Z,100011.75
2022-11-05T15:11:24.375Z,100012.28
2022-11-05T15:13:54.419Z,100010.97
2022-11-05T15:16:37.068Z,100017.09
2022-11-05T15:19:05.657Z,100017.72
2022-11-05T15:21:36.585Z,100015.72
2022-11-05T15:24:05.014Z,100027.69
2022-11-05T15:26:41.786Z,100044.53
2022-11-05T15:29:22.353Z,100043.13
2022-11-05T15:31:51.131Z,100039.84
2022-11-05T15:34:27.119Z,100048.75
2022-11-05T15:36:57.896Z,100050.25
2022-11-05T15:39:40.575Z,100048.31
2022-11-05T15:42:14.626Z,100058.16
2022-11-05T15:44:44.153Z,100048.66
2022-11-05T15:47:19.232Z,100047.41
2022-11-05T15:49:50.950Z,100039.09
2022-11-05T15:52:21.373Z,100028.81
2022-11-05T15:55:08.978Z,100020.59
2022-11-05T15:57:40.043Z,100018.66
2022-11-05T16:00:17.862Z,100011.22
2022-11-05T16:02:54.468Z,99990.81
2022-11-05T16:05:22.670Z,99990.25
2022-11-05T16:07:50.891Z,99984.59
2022-11-05T16:10:24.769Z,99973.59
2022-11-05T16:12:52.473Z,99989.16
2022-11-05T16:15:25.913Z,99996.38
2022-11-05T16:17:53.184Z,100004.81
2022-11-05T16:20:34.753Z,100007.34
2022-11-05T16:23:23.491Z,100005.88
2022-11-05T16:25:52.369Z,100001.19
2022-11-05T16:28:29.293Z,100003.25
2022-11-05T16:31:04.682Z,99997.53
2022-11-05T16:33:35.543Z,99999.44
2022-11-05T16:36:02.760Z,99997.97
2022-11-05T16:38:30.734Z,99996.03
2022-11-05T16:41:00.525Z,100003.13
2022-11-05T16:43:27.932Z,100004.34
2022-11-05T16:45:58.265Z,100000.13
2022-11-05T16:48:26.270Z,99997.97
2022-11-05T16:50:54.203Z,100020.88
2022-11-05T16:53:21.490Z,100022.59
2022-11-05T16:55:48.888Z,100030.47
2022-11-05T16:58:22.114Z,100026.25
2022-11-05T17:00:51.707Z,100027.25
2022-11-05T17:03:18.985Z,100031.41
2022-11-05T17:05:46.594Z,100034.75
2022-11-05T17:08:14.147Z,100039.50
2022-11-05T17:10:41.603Z,100045.91
2022-11-05T17:13:14.415Z,100057.09
2022-11-05T17:15:43.936Z,100062.81
2022-11-05T17:18:17.916Z,100055.75
2022-11-05T17:20:51.451Z,100061.53
2022-11-05T17:23:21.921Z,100049.91
2022-11-05T17:25:55.282Z,100053.44
2022-11-05T17:28:23.133Z,100056.88
2022-11-05T17:30:53.119Z,100052.53
2022-11-05T17:33:23.162Z,100052.09
2022-11-05T17:35:51.822Z,100053.09
2022-11-05T17:38:20.421Z,100062.13
2022-11-05T17:40:48.199Z,100075.13
2022-11-05T17:43:16.107Z,100083.47
2022-11-05T17:45:49.486Z,100085.84
2022-11-05T17:48:17.055Z,100087.22
2022-11-05T17:50:47.201Z,100096.19
2022-11-05T17:53:16.597Z,100095.28
2022-11-05T17:55:45.553Z,100103.81
2022-11-05T17:58:13.587Z,100107.22
2022-11-05T18:00:42.045Z,100119.31
2022-11-05T18:03:11.333Z,100106.00
2022-11-05T18:05:41.259Z,100111.47
2022-11-05T18:08:09.239Z,100109.97
2022-11-05T18:10:38.148Z,100112.03
2022-11-05T18:13:05.568Z,100116.81
2022-11-05T18:15:32.894Z,100120.72
2022-11-05T18:18:00.254Z,100133.59
2022-11-05T18:20:27.503Z,100133.34
2022-11-05T18:22:54.693Z,100137.44
2022-11-05T18:25:21.934Z,100120.09
2022-11-05T18:27:49.014Z,100117.03
2022-11-05T18:30:16.468Z,100116.34
2022-11-05T18:32:44.551Z,100122.72
2022-11-05T18:35:13.534Z,100129.13
2022-11-05T18:37:41.556Z,100123.31
2022-11-05T18:40:09.127Z,100122.19
2022-11-05T18:42:36.655Z,100129.13
2022-11-05T18:45:05.388Z,100125.59
2022-11-05T18:47:33.855Z,100124.69
2022-11-05T18:50:01.643Z,100126.50
2022-11-05T18:52:31.772Z,100135.03
2022-11-05T18:54:59.733Z,100135.25
2022-11-05T18:57:27.343Z,100125.97
2022-11-05T18:59:54.510Z,100129.72
2022-11-05T19:02:21.975Z,100135.88
2022-11-05T19:05:13.809Z,100140.88
2022-11-05T19:07:38.128Z,100142.50
2022-11-05T19:10:06.313Z,100145.22
2022-11-05T19:12:35.680Z,100153.19
2022-11-05T19:15:03.290Z,100151.63
2022-11-05T19:17:32.962Z,100152.53
2022-11-05T19:20:00.481Z,100147.97
2022-11-05T19:22:28.097Z,100153.38
2022-11-05T19:24:55.208Z,100157.81
2022-11-05T19:27:22.544Z,100166.75
2022-11-05T19:29:49.673Z,100168.94
2022-11-05T19:32:16.981Z,100178.09
2022-11-05T19:34:44.174Z,100177.06
2022-11-05T19:37:12.690Z,100172.06
2022-11-05T19:39:41.403Z,100183.56
2022-11-05T19:42:08.448Z,100181.44
2022-11-05T19:44:35.669Z,100187.03
2022-11-05T19:47:03.088Z,100182.81
2022-11-05T19:49:30.239Z,100183.13
2022-11-05T19:51:57.575Z,100183.50
2022-11-05T19:54:26.342Z,100189.28
2022-11-05T19:56:53.528Z,100187.38
2022-11-05T19:59:20.668Z,100191.22
2022-11-05T20:01:48.291Z,100190.00
2022-11-05T20:04:15.577Z,100197.59
2022-11-05T20:06:42.739Z,100203.16
2022-11-05T20:09:21.557Z,100206.91
2022-11-05T20:11:50.346Z,100195.06
2022-11-05T20:14:17.658Z,100212.16
2022-11-05T20:16:45.877Z,100211.19
2022-11-05T20:19:18.646Z,100214.16
2022-11-05T20:21:46.833Z,100221.56
2022-11-05T20:24:22.290Z,100222.38
2022-11-05T20:26:52.678Z,100233.44
2022-11-05T20:29:19.843Z,100240.63
2022-11-05T20:31:47.899Z,100251.56
2022-11-05T20:34:15.108Z,100240.50
2022-11-05T20:36:42.288Z,100249.25
2022-11-05T20:39:10.798Z,100248.31
2022-11-05T20:41:38.255Z,100245.47
2022-11-05T20:44:05.530Z,100255.13
2022-11-05T20:46:33.190Z,100247.94
2022-11-05T20:49:00.413Z,100244.25
2022-11-05T20:51:30.688Z,100243.31
2022-11-05T20:54:01.402Z,100241.25
2022-11-05T20:56:31.694Z,100252.03
2022-11-05T20:59:00.325Z,100242.53
2022-11-05T21:01:29.855Z,100244.47
2022-11-05T21:03:57.504Z,100239.69
2022-11-05T21:06:24.643Z,100241.75
2022-11-05T21:08:52.907Z,100241.75
2022-11-05T21:11:20.982Z,100237.91
2022-11-05T21:13:48.831Z,100243.38
2022-11-05T21:16:18.592Z,100266.34
2022-11-05T21:18:46.904Z,100270.38
2022-11-05T21:21:20.393Z,100270.53
2022-11-05T21:23:48.125Z,100260.88
2022-11-05T21:26:17.017Z,100262.94
2022-11-05T21:28:44.404Z,100267.06
2022-11-05T21:31:11.641Z,100273.13
2022-11-05T21:33:39.104Z,100285.03
2022-11-05T21:36:11.335Z,100285.94
2022-11-05T21:38:39.005Z,100286.88
2022-11-05T21:41:07.333Z,100293.75
2022-11-05T21:43:34.953Z,100285.34
2022-11-05T21:46:03.358Z,100285.81
2022-11-05T21:48:31.243Z,100272.13
2022-11-05T21:51:16.887Z,100280.69
2022-11-05T21:54:02.614Z,100271.66
2022-11-05T21:56:48.710Z,100275.53
2022-11-05T21:59:37.356Z,100282.13
2022-11-05T22:02:05.399Z,100292.59
2022-11-05T22:04:35.050Z,100289.56
2022-11-05T22:07:03.127Z,100278.59
2022-11-05T22:09:30.322Z,100269.25
2022-11-05T22:11:57.800Z,100267.78
2022-11-05T22:14:26.465Z,100281.25
2022-11-05T22:16:53.747Z,100279.59
2022-11-05T22:19:21.151Z,100258.63
2022-11-05T22:21:48.373Z,100268.09
2022-11-05T22:24:15.735Z,100262.41
2022-11-05T22:26:43.700Z,100252.25
2022-11-05T22:29:12.212Z,100259.78
2022-11-05T22:31:40.190Z,100252.72
2022-11-05T22:34:07.831Z,100260.13
2022-11-05T22:36:36.115Z,100267.31
2022-11-05T22:39:05.325Z,100262.38
2022-11-05T22:41:32.737Z,100248.41
2022-11-05T22:43:59.889Z,100239.63
2022-11-05T22:46:27.718Z,100228.22
2022-11-05T22:48:56.329Z,100238.00
2022-11-05T22:51:25.975Z,100239.28
2022-11-05T22:53:54.971Z,100239.09
2022-11-05T22:56:24.379Z,100240.06
2022-11-05T22:58:52.078Z,100248.72
2022-11-05T23:01:22.485Z,100248.31
2022-11-05T23:03:51.900Z,100257.53
2022-11-05T23:06:40.230Z,100262.41
2022-11-05T23:09:33.590Z,100257.13
2022-11-05T23:12:01.999Z,100246.84
2022-11-05T23:14:29.761Z,100239.44
2022-11-05T23:17:15.336Z,100238.06
2022-11-05T23:20:01.023Z,100238.88
2022-11-05T23:22:48.396Z,100239.91
2022-11-05T23:25:19.009Z,100231.06
2022-11-05T23:27:48.980Z,100224.81
2022-11-05T23:30:22.955Z,100218.56
2022-11-05T23:32:50.950Z,100220.66
2022-11-05T23:35:18.344Z,100216.34
2022-11-05T23:38:03.917Z,100203.47
2022-11-05T23:40:52.014Z,100225.59
2022-11-05T23:43:37.917Z,100226.22
2022-11-05T23:46:23.448Z,100212.69
2022-11-05T23:48:50.926Z,100212.69
2022-11-05T23:51:18.332Z,100215.06
2022-11-05T23:53:45.428Z,100208.16
2022-11-05T23:56:14.697Z,100199.25
2022-11-05T23:58:42.633Z,100205.50
